Time;durP1;ratioP1;P1;durP2;ratioP2;P2;SDS_P1;SDS_P2;PMS_P1;PMS_P2;Temp;Humidity;BMP_temperature;BMP_pressure;BME280_temperature;BME280_humidity;BME280_pressure;Samples;Min_cycle;Max_cycle;Signal;HPM_P1;HPM_P2
2021/11/14 00:00:47;;;;;;;22.13;11.13;;;8.60;99.90;;;;;;5086068;28;20492;-77
2021/11/14 00:03:14;;;;;;;14.70;9.43;;;8.70;99.90;;;;;;5071603;28;20099;-77
2021/11/14 00:05:41;;;;;;;14.63;9.23;;;8.70;99.90;;;;;;5082405;28;20024;-76
2021/11/14 00:08:09;;;;;;;13.13;9.50;;;8.80;99.90;;;;;;5113261;27;20481;-77
2021/11/14 00:10:35;;;;;;;14.93;7.93;;;8.80;99.90;;;;;;5107663;28;20093;-76
2021/11/14 00:13:02;;;;;;;12.90;8.45;;;8.80;99.90;;;;;;5092991;28;20703;-77
2021/11/14 00:15:27;;;;;;;14.13;8.93;;;8.80;99.90;;;;;;5096783;28;20027;-77
2021/11/14 00:17:53;;;;;;;14.48;9.05;;;8.80;99.90;;;;;;5093429;28;20118;-76
2021/11/14 00:20:20;;;;;;;14.20;9.35;;;8.80;99.90;;;;;;5097837;28;20057;-77
2021/11/14 00:22:46;;;;;;;14.40;9.38;;;8.80;99.90;;;;;;5111195;28;20073;-76
2021/11/14 00:25:14;;;;;;;16.20;9.50;;;8.80;99.90;;;;;;5110872;28;20087;-77
2021/11/14 00:27:41;;;;;;;16.40;9.00;;;8.80;99.90;;;;;;5095567;28;20028;-77
2021/11/14 00:30:07;;;;;;;14.20;8.73;;;8.80;99.90;;;;;;5111148;28;20024;-77
2021/11/14 00:32:34;;;;;;;19.85;10.15;;;8.80;99.90;;;;;;5092733;28;20036;-76
2021/11/14 00:34:59;;;;;;;16.77;11.02;;;8.80;99.90;;;;;;5095355;28;20036;-77
2021/11/14 00:37:25;;;;;;;27.88;11.73;;;8.80;99.90;;;;;;5101819;28;20036;-76
2021/11/14 00:39:51;;;;;;;80.93;16.77;;;8.80;99.90;;;;;;5092814;28;20086;-77
2021/11/14 00:42:17;;;;;;;16.95;9.70;;;8.70;99.90;;;;;;5107989;28;20024;-76
2021/11/14 00:44:42;;;;;;;17.52;9.60;;;8.70;99.90;;;;;;5111739;28;20445;-77
2021/11/14 00:47:08;;;;;;;42.45;12.75;;;8.70;99.90;;;;;;5089470;28;20039;-77
2021/11/14 00:49:35;;;;;;;115.25;18.23;;;8.80;99.90;;;;;;5102427;28;20081;-77
2021/11/14 00:52:01;;;;;;;18.55;10.30;;;8.70;99.90;;;;;;5090220;28;20082;-77
2021/11/14 00:54:26;;;;;;;20.00;10.52;;;8.70;99.90;;;;;;5089800;28;20052;-77
2021/11/14 00:56:52;;;;;;;15.82;9.80;;;8.70;99.90;;;;;;5103844;28;20607;-77
2021/11/14 00:59:18;;;;;;;20.00;11.32;;;8.80;99.90;;;;;;5093271;28;20039;-76
2021/11/14 01:01:44;;;;;;;16.35;10.55;;;8.80;99.90;;;;;;5109740;28;20521;-77
2021/11/14 01:04:09;;;;;;;17.27;10.57;;;8.80;99.90;;;;;;5093113;28;20028;-76
2021/11/14 01:06:35;;;;;;;16.40;10.50;;;8.80;99.90;;;;;;5098668;28;20051;-76
2021/11/14 01:09:01;;;;;;;18.30;10.88;;;8.70;99.90;;;;;;5109085;28;20031;-77
2021/11/14 01:11:27;;;;;;;15.25;10.13;;;8.70;99.90;;;;;;5090304;28;20067;-76
2021/11/14 01:13:53;;;;;;;17.23;9.60;;;8.70;99.90;;;;;;5101890;28;20439;-77
2021/11/14 01:16:21;;;;;;;13.02;9.45;;;8.70;99.90;;;;;;5109726;28;20016;-76
2021/11/14 01:18:47;;;;;;;159.52;23.75;;;8.70;99.90;;;;;;5098828;28;20036;-77
2021/11/14 01:21:16;;;;;;;17.20;10.07;;;8.70;99.90;;;;;;5105883;28;20050;-77
2021/11/14 01:23:43;;;;;;;15.20;9.40;;;8.70;99.90;;;;;;5091332;28;20043;-77
2021/11/14 01:26:09;;;;;;;16.00;9.23;;;8.70;99.90;;;;;;5094424;28;20072;-77
2021/11/14 01:28:35;;;;;;;13.32;7.82;;;8.70;99.90;;;;;;5103991;28;20351;-76
2021/11/14 01:31:01;;;;;;;13.93;9.05;;;8.70;99.90;;;;;;5097352;28;20036;-77
2021/11/14 01:33:29;;;;;;;16.88;10.15;;;8.70;99.90;;;;;;5098362;28;20047;-76
2021/11/14 01:35:57;;;;;;;12.68;9.00;;;8.70;99.90;;;;;;5096298;28;20085;-77
2021/11/14 01:38:24;;;;;;;13.52;8.23;;;8.80;99.90;;;;;;5108178;28;20046;-77
2021/11/14 01:40:53;;;;;;;11.68;8.13;;;8.80;99.90;;;;;;5094227;28;20043;-77
2021/11/14 01:43:24;;;;;;;13.63;9.10;;;8.90;99.90;;;;;;5082931;28;20020;-77
2021/11/14 01:45:50;;;;;;;14.73;8.60;;;8.90;99.90;;;;;;5076309;28;20509;-77
2021/11/14 01:48:16;;;;;;;12.82;8.95;;;8.90;99.90;;;;;;5106818;28;20031;-77
2021/11/14 01:50:42;;;;;;;12.25;7.97;;;8.80;99.90;;;;;;5105630;28;20045;-76
2021/11/14 01:53:08;;;;;;;12.10;7.65;;;8.80;99.90;;;;;;5089154;28;20095;-77
2021/11/14 01:55:35;;;;;;;11.27;6.90;;;8.80;99.90;;;;;;5089054;28;20027;-76
2021/11/14 01:58:01;;;;;;;10.40;6.68;;;8.80;99.90;;;;;;5094292;28;20040;-77
2021/11/14 02:00:42;;;;;;;9.48;6.13;;;8.80;99.90;;;;;;5109417;28;20027;-77
2021/11/14 02:03:08;;;;;;;9.77;6.43;;;8.80;99.90;;;;;;5075150;28;20331;-76
2021/11/14 02:05:34;;;;;;;8.73;6.40;;;8.70;99.90;;;;;;5101183;28;20051;-77
2021/11/14 02:08:04;;;;;;;11.13;6.28;;;8.80;99.90;;;;;;5096668;28;20047;-77
2021/11/14 02:10:32;;;;;;;10.98;6.78;;;8.70;99.90;;;;;;5091259;28;20070;-77
2021/11/14 02:12:59;;;;;;;8.35;6.15;;;8.80;99.90;;;;;;5106488;28;20051;-77
2021/11/14 02:15:25;;;;;;;8.48;5.60;;;8.80;99.90;;;;;;5111237;28;20035;-77
2021/11/14 02:17:50;;;;;;;9.27;6.03;;;8.80;99.90;;;;;;5100126;28;20024;-76
2021/11/14 02:20:20;;;;;;;7.68;5.15;;;8.80;99.90;;;;;;5111053;28;20061;-77
2021/11/14 02:22:46;;;;;;;7.80;5.03;;;8.80;99.90;;;;;;5109931;28;20028;-77
2021/11/14 02:25:15;;;;;;;9.55;5.72;;;8.80;99.90;;;;;;5101235;28;20028;-77
2021/11/14 02:27:42;;;;;;;8.95;4.65;;;8.80;99.90;;;;;;5112629;28;20027;-77
2021/11/14 02:30:11;;;;;;;7.60;4.85;;;8.90;99.90;;;;;;5108765;28;20024;-77
2021/11/14 02:32:37;;;;;;;7.25;5.10;;;8.90;99.90;;;;;;5094347;28;20016;-77
2021/11/14 02:35:03;;;;;;;7.70;4.20;;;9.00;99.90;;;;;;5096973;28;20084;-76
2021/11/14 02:37:29;;;;;;;7.95;4.20;;;8.90;99.90;;;;;;5114658;28;20032;-76
2021/11/14 02:39:55;;;;;;;8.23;5.40;;;9.00;99.90;;;;;;5110747;28;20524;-76
2021/11/14 02:42:21;;;;;;;7.85;5.13;;;9.00;99.90;;;;;;5094051;28;20027;-77
2021/11/14 02:44:46;;;;;;;7.32;4.22;;;8.90;99.90;;;;;;5112975;28;20495;-77
2021/11/14 02:47:12;;;;;;;7.05;4.35;;;9.00;99.90;;;;;;5114250;28;20374;-76
2021/11/14 02:49:38;;;;;;;7.65;4.65;;;8.90;99.90;;;;;;5101855;28;20458;-77
2021/11/14 02:52:05;;;;;;;8.27;5.13;;;8.90;99.90;;;;;;5104669;28;20081;-77
2021/11/14 02:54:32;;;;;;;7.93;5.22;;;9.00;99.90;;;;;;5098441;28;20025;-77
2021/11/14 02:56:57;;;;;;;8.75;5.55;;;9.00;99.90;;;;;;5094126;28;20055;-77
2021/11/14 02:59:24;;;;;;;8.70;4.50;;;9.00;99.90;;;;;;5100270;28;20454;-77
2021/11/14 03:01:53;;;;;;;9.68;5.03;;;9.00;99.90;;;;;;5093649;28;20032;-77
2021/11/14 03:04:24;;;;;;;8.60;5.15;;;9.00;99.90;;;;;;5106025;28;20039;-77
2021/11/14 03:06:54;;;;;;;8.88;4.68;;;9.00;99.90;;;;;;5112195;28;20057;-76
2021/11/14 03:09:22;;;;;;;7.25;4.43;;;9.00;99.90;;;;;;5104949;28;20023;-76
2021/11/14 03:11:48;;;;;;;8.70;4.45;;;9.00;99.90;;;;;;5113117;27;20126;-77
2021/11/14 03:14:14;;;;;;;8.82;4.78;;;9.00;99.90;;;;;;5103517;28;20111;-77
2021/11/14 03:16:40;;;;;;;8.70;5.70;;;9.00;99.90;;;;;;5093492;28;20024;-77
2021/11/14 03:19:05;;;;;;;7.57;4.53;;;9.10;99.90;;;;;;5098441;28;20047;-77
2021/11/14 03:21:31;;;;;;;7.85;4.35;;;9.00;99.90;;;;;;5111817;28;20035;-77
2021/11/14 03:23:58;;;;;;;8.45;4.93;;;9.00;99.90;;;;;;5098098;28;20103;-76
2021/11/14 03:26:25;;;;;;;9.57;5.90;;;8.90;99.90;;;;;;5100504;28;20027;-77
2021/11/14 03:28:51;;;;;;;6.90;4.32;;;8.90;99.90;;;;;;5106647;28;20424;-77
2021/11/14 03:31:17;;;;;;;7.65;3.90;;;8.90;99.90;;;;;;5099226;28;20028;-77
2021/11/14 03:33:43;;;;;;;7.90;4.30;;;8.90;99.90;;;;;;5072541;28;20032;-76
2021/11/14 03:36:13;;;;;;;9.13;4.90;;;8.90;99.90;;;;;;5072909;28;20104;-76
2021/11/14 03:38:49;;;;;;;8.15;5.15;;;8.90;99.90;;;;;;5111550;28;20118;-76
2021/11/14 03:41:20;;;;;;;9.05;4.93;;;8.80;99.90;;;;;;5099252;28;20038;-76
2021/11/14 03:43:47;;;;;;;7.47;4.85;;;8.90;99.90;;;;;;5092442;28;20024;-77
2021/11/14 03:46:13;;;;;;;8.07;4.63;;;8.90;99.90;;;;;;5092109;28;20028;-77
2021/11/14 03:48:42;;;;;;;6.03;3.53;;;8.90;99.90;;;;;;5095141;28;20031;-77
2021/11/14 03:51:10;;;;;;;6.32;3.63;;;9.00;99.90;;;;;;5104417;28;20447;-77
2021/11/14 03:53:37;;;;;;;7.85;4.50;;;9.00;99.90;;;;;;5093841;28;20030;-77
2021/11/14 03:56:04;;;;;;;7.40;4.25;;;9.10;99.90;;;;;;5111182;28;20084;-77
2021/11/14 03:58:30;;;;;;;8.35;5.07;;;9.00;99.90;;;;;;5109769;28;20044;-77
2021/11/14 04:00:59;;;;;;;8.45;4.47;;;9.10;99.90;;;;;;5085981;28;20062;-76
2021/11/14 04:03:26;;;;;;;7.05;4.72;;;9.00;99.90;;;;;;5075341;28;20032;-76
2021/11/14 04:05:52;;;;;;;7.60;4.45;;;8.90;99.90;;;;;;5094832;28;20038;-76
2021/11/14 04:08:21;;;;;;;7.45;4.78;;;8.90;99.90;;;;;;5089182;28;20557;-76
2021/11/14 04:10:49;;;;;;;8.40;4.90;;;8.90;99.90;;;;;;5104708;28;20081;-76
2021/11/14 04:13:17;;;;;;;7.63;5.38;;;8.90;99.90;;;;;;5090688;28;20718;-76
2021/11/14 04:15:44;;;;;;;7.97;4.95;;;8.90;99.90;;;;;;5083310;28;20028;-75
2021/11/14 04:18:10;;;;;;;8.02;5.00;;;8.90;99.90;;;;;;5086064;28;20039;-76
2021/11/14 04:20:38;;;;;;;7.93;4.47;;;8.90;99.90;;;;;;5084696;28;20028;-76
2021/11/14 04:23:06;;;;;;;6.85;4.00;;;8.90;99.90;;;;;;5096977;28;20512;-76
2021/11/14 04:25:31;;;;;;;7.18;4.20;;;8.80;99.90;;;;;;5108184;28;20032;-76
2021/11/14 04:27:58;;;;;;;8.00;4.30;;;8.70;99.90;;;;;;5107252;28;20028;-76
2021/11/14 04:30:24;;;;;;;8.38;4.30;;;8.70;99.90;;;;;;5087490;28;20035;-76
2021/11/14 04:32:51;;;;;;;8.35;4.28;;;8.70;99.90;;;;;;5089798;28;20043;-76
2021/11/14 04:35:17;;;;;;;6.65;4.07;;;8.80;99.90;;;;;;5087924;28;20020;-77
2021/11/14 04:37:43;;;;;;;6.30;4.22;;;8.80;99.90;;;;;;5090093;28;20023;-76
2021/11/14 04:40:09;;;;;;;5.93;4.13;;;8.80;99.90;;;;;;5107515;28;20358;-76
2021/11/14 04:42:36;;;;;;;6.65;3.70;;;8.80;99.90;;;;;;5103276;28;20044;-75
2021/11/14 04:45:04;;;;;;;5.95;3.58;;;8.80;99.90;;;;;;5087397;28;20537;-75
2021/11/14 04:47:29;;;;;;;8.35;4.20;;;8.90;99.90;;;;;;5101905;28;20032;-75
2021/11/14 04:49:55;;;;;;;7.32;4.43;;;8.90;99.90;;;;;;5107570;28;20024;-75
2021/11/14 04:52:21;;;;;;;6.20;3.95;;;8.90;99.90;;;;;;5094093;28;20107;-75
2021/11/14 04:54:47;;;;;;;6.40;3.95;;;8.90;99.90;;;;;;5097571;28;20499;-75
2021/11/14 04:57:12;;;;;;;6.32;4.25;;;8.90;99.90;;;;;;5096117;28;20302;-75
2021/11/14 04:59:38;;;;;;;5.72;3.63;;;8.80;99.90;;;;;;5103682;28;20036;-75
2021/11/14 05:02:04;;;;;;;6.03;3.53;;;8.80;99.90;;;;;;5102045;28;20024;-76
2021/11/14 05:04:30;;;;;;;6.22;3.85;;;8.80;99.90;;;;;;5100174;28;20676;-75
2021/11/14 05:06:55;;;;;;;5.72;3.70;;;8.80;99.90;;;;;;5095509;28;20063;-75
2021/11/14 05:09:21;;;;;;;6.68;3.65;;;8.80;99.90;;;;;;5087232;28;20548;-75
2021/11/14 05:11:47;;;;;;;6.07;3.40;;;8.80;99.90;;;;;;5100880;28;20047;-76
2021/11/14 05:14:13;;;;;;;5.93;3.72;;;8.80;99.90;;;;;;5105938;28;20099;-76
2021/11/14 05:16:38;;;;;;;5.65;3.60;;;8.90;99.90;;;;;;5103846;28;20024;-76
2021/11/14 05:19:04;;;;;;;6.35;3.42;;;8.90;99.90;;;;;;5107035;28;20024;-76
2021/11/14 05:21:30;;;;;;;6.30;3.17;;;8.90;99.90;;;;;;5087498;28;20032;-76
2021/11/14 05:23:55;;;;;;;5.03;2.80;;;8.90;99.90;;;;;;5086606;28;20028;-76
2021/11/14 05:26:21;;;;;;;5.20;3.25;;;8.80;99.90;;;;;;5092319;28;20020;-76
2021/11/14 05:28:47;;;;;;;4.88;3.22;;;8.80;99.90;;;;;;5086902;28;20016;-76
2021/11/14 05:31:13;;;;;;;5.20;3.15;;;8.80;99.90;;;;;;5103349;28;20024;-76
2021/11/14 05:33:38;;;;;;;5.80;2.85;;;8.70;99.90;;;;;;5098118;28;20025;-76
2021/11/14 05:36:04;;;;;;;8.05;4.30;;;8.70;99.90;;;;;;5099950;28;20020;-76
2021/11/14 05:38:30;;;;;;;7.72;4.90;;;8.70;99.90;;;;;;5093975;28;20031;-76
2021/11/14 05:40:56;;;;;;;9.05;5.80;;;8.70;99.90;;;;;;5106926;28;20061;-76
2021/11/14 05:43:22;;;;;;;8.48;5.38;;;8.70;99.90;;;;;;5105591;28;21028;-76
2021/11/14 05:45:47;;;;;;;10.20;5.40;;;8.70;99.90;;;;;;5104065;28;20054;-76
2021/11/14 05:48:13;;;;;;;8.82;5.05;;;8.80;99.90;;;;;;5100304;28;20028;-76
2021/11/14 05:50:39;;;;;;;7.78;4.28;;;8.80;99.90;;;;;;5084970;28;20378;-76
2021/11/14 05:53:06;;;;;;;7.68;4.45;;;8.80;99.90;;;;;;5099748;28;20537;-76
2021/11/14 05:55:32;;;;;;;7.85;4.90;;;8.80;99.90;;;;;;5107147;28;20024;-76
2021/11/14 05:58:08;;;;;;;6.88;4.32;;;8.80;99.90;;;;;;5105046;28;20024;-76
2021/11/14 06:03:32;;;;;;;6.85;3.83;;;8.80;99.90;;;;;;5090367;28;20064;-76
2021/11/14 06:05:58;;;;;;;8.18;4.57;;;8.80;99.90;;;;;;5066556;28;20119;-76
2021/11/14 06:08:24;;;;;;;11.02;4.03;;;8.80;99.90;;;;;;5094672;28;20690;-76
2021/11/14 06:10:52;;;;;;;7.90;4.35;;;8.80;99.90;;;;;;5092790;28;20433;-76
2021/11/14 06:13:23;;;;;;;7.75;4.55;;;8.80;99.90;;;;;;5089657;28;20132;-76
2021/11/14 06:15:49;;;;;;;9.05;4.60;;;8.80;99.90;;;;;;5088582;28;20032;-76
2021/11/14 06:18:14;;;;;;;7.05;4.13;;;8.80;99.90;;;;;;5100091;28;20039;-76
2021/11/14 06:20:40;;;;;;;8.63;4.30;;;8.80;99.90;;;;;;5096368;28;20599;-76
2021/11/14 06:23:07;;;;;;;8.32;4.35;;;8.80;99.90;;;;;;5090108;28;20031;-76
2021/11/14 06:25:33;;;;;;;7.43;4.47;;;8.80;99.90;;;;;;5090544;28;20497;-76
2021/11/14 06:28:00;;;;;;;6.70;4.40;;;8.80;99.90;;;;;;5098172;28;20031;-76
2021/11/14 06:30:25;;;;;;;6.95;4.30;;;8.80;99.90;;;;;;5108486;28;20035;-76
2021/11/14 06:32:51;;;;;;;6.72;4.05;;;8.70;99.90;;;;;;5108349;28;20028;-76
2021/11/14 06:35:18;;;;;;;7.85;4.70;;;8.70;99.90;;;;;;5110350;28;20038;-76
2021/11/14 06:37:44;;;;;;;9.88;4.68;;;8.70;99.90;;;;;;5095828;28;20623;-76
2021/11/14 06:40:11;;;;;;;7.10;3.90;;;8.70;99.90;;;;;;5091001;28;20081;-77
2021/11/14 06:42:37;;;;;;;5.15;3.53;;;8.70;99.90;;;;;;5100483;28;20020;-76
2021/11/14 06:45:04;;;;;;;5.85;3.63;;;8.70;99.90;;;;;;5089823;28;20024;-75
2021/11/14 06:47:30;;;;;;;6.57;2.75;;;8.70;99.90;;;;;;5096786;28;20031;-76
2021/11/14 06:49:55;;;;;;;7.38;3.55;;;8.70;99.90;;;;;;5106900;28;20027;-76
2021/11/14 06:52:22;;;;;;;7.25;3.78;;;8.80;99.90;;;;;;5098213;28;20084;-77
2021/11/14 06:54:49;;;;;;;5.43;3.25;;;8.80;99.90;;;;;;5105479;28;20115;-76
2021/11/14 06:57:15;;;;;;;4.75;2.65;;;8.80;99.90;;;;;;5104285;27;20111;-76
2021/11/14 06:59:41;;;;;;;5.03;3.05;;;8.80;99.90;;;;;;5093592;28;20169;-75
2021/11/14 07:02:08;;;;;;;6.47;3.72;;;8.80;99.90;;;;;;5094685;28;20429;-76
2021/11/14 07:04:34;;;;;;;5.22;3.33;;;8.90;99.90;;;;;;5089927;28;20031;-75
2021/11/14 07:07:00;;;;;;;6.47;3.60;;;8.80;99.90;;;;;;5107096;28;20218;-75
2021/11/14 07:09:26;;;;;;;6.95;3.42;;;8.80;99.90;;;;;;5098463;28;20647;-75
2021/11/14 07:11:53;;;;;;;6.22;3.67;;;8.80;99.90;;;;;;5091995;28;20043;-75
2021/11/14 07:14:22;;;;;;;5.53;3.17;;;8.90;99.90;;;;;;5104962;28;20081;-75
2021/11/14 07:16:48;;;;;;;6.05;3.63;;;8.90;99.90;;;;;;5106826;28;20027;-75
2021/11/14 07:19:14;;;;;;;7.28;4.03;;;8.80;99.90;;;;;;5104496;27;20032;-75
2021/11/14 07:21:40;;;;;;;6.10;3.60;;;8.80;99.90;;;;;;5105217;28;20028;-75
2021/11/14 07:24:06;;;;;;;6.10;4.13;;;8.80;99.90;;;;;;5106583;28;20016;-75
2021/11/14 07:26:32;;;;;;;5.13;3.15;;;8.80;99.90;;;;;;5094871;28;20113;-75
2021/11/14 07:28:58;;;;;;;5.43;3.13;;;8.80;99.90;;;;;;5085985;28;20024;-75
2021/11/14 07:31:23;;;;;;;5.80;3.38;;;8.80;99.90;;;;;;5093166;28;20028;-75
2021/11/14 07:33:49;;;;;;;5.78;2.80;;;8.80;99.90;;;;;;5078854;28;20837;-75
2021/11/14 07:36:15;;;;;;;5.07;2.92;;;8.80;99.90;;;;;;5066057;28;20094;-75
2021/11/14 07:38:41;;;;;;;4.78;2.92;;;8.80;99.90;;;;;;5066130;28;20502;-76
2021/11/14 07:41:07;;;;;;;5.47;3.13;;;8.90;99.90;;;;;;5070099;28;20582;-76
2021/11/14 07:43:33;;;;;;;4.75;2.65;;;8.90;99.90;;;;;;5066114;28;20040;-76
2021/11/14 07:45:59;;;;;;;4.97;2.40;;;8.90;99.90;;;;;;5068388;28;20374;-76
2021/11/14 07:48:25;;;;;;;4.28;2.17;;;8.90;99.90;;;;;;5068161;28;20551;-76
2021/11/14 07:50:54;;;;;;;8.05;3.05;;;8.90;99.90;;;;;;5071385;28;20032;-76
2021/11/14 07:53:20;;;;;;;6.60;2.30;;;9.00;99.90;;;;;;5064910;28;20025;-76
2021/11/14 07:55:46;;;;;;;5.55;2.78;;;8.80;99.90;;;;;;5069237;28;20030;-75
2021/11/14 07:58:13;;;;;;;6.40;2.85;;;8.90;99.90;;;;;;5083994;28;20606;-76
2021/11/14 08:00:39;;;;;;;4.90;2.80;;;8.80;99.90;;;;;;5082916;28;20024;-75
2021/11/14 08:03:05;;;;;;;6.30;3.10;;;8.80;99.90;;;;;;5083455;28;20028;-76
2021/11/14 08:05:31;;;;;;;4.50;2.65;;;8.90;99.90;;;;;;5078600;28;20030;-80
2021/11/14 08:07:57;;;;;;;5.20;2.95;;;9.00;99.90;;;;;;5069523;28;20063;-75
2021/11/14 08:10:24;;;;;;;6.38;3.15;;;8.90;99.90;;;;;;5072546;28;20021;-76
2021/11/14 08:12:50;;;;;;;6.78;2.65;;;8.90;99.90;;;;;;5067991;28;20048;-75
2021/11/14 08:15:17;;;;;;;5.05;2.22;;;8.80;99.90;;;;;;5074112;28;20378;-75
2021/11/14 08:17:44;;;;;;;5.72;2.47;;;8.90;99.90;;;;;;5088563;28;20540;-75
2021/11/14 08:20:10;;;;;;;6.60;2.60;;;8.80;99.90;;;;;;5088919;28;20063;-75
2021/11/14 08:22:37;;;;;;;5.00;2.92;;;8.80;99.90;;;;;;5108791;28;20027;-75
2021/11/14 08:25:04;;;;;;;4.47;2.55;;;8.80;99.90;;;;;;5107131;28;20080;-75
2021/11/14 08:27:31;;;;;;;5.70;2.63;;;8.80;99.90;;;;;;5107003;28;20521;-75
2021/11/14 08:29:58;;;;;;;5.78;3.00;;;8.80;99.90;;;;;;5080896;28;20098;-75
2021/11/14 08:32:25;;;;;;;4.80;2.22;;;8.80;99.90;;;;;;5088660;28;20042;-75
2021/11/14 08:34:51;;;;;;;8.32;3.75;;;8.80;99.90;;;;;;5107204;27;20039;-75
2021/11/14 08:37:16;;;;;;;5.72;3.13;;;8.80;99.90;;;;;;5107051;28;20030;-75
2021/11/14 08:39:42;;;;;;;5.55;2.92;;;8.90;99.90;;;;;;5106555;27;20114;-75
2021/11/14 08:42:09;;;;;;;5.22;3.20;;;8.80;99.90;;;;;;5093668;28;20028;-75
2021/11/14 08:44:35;;;;;;;5.20;2.83;;;8.80;99.90;;;;;;5086765;28;20585;-75
2021/11/14 08:47:01;;;;;;;6.60;3.10;;;8.80;99.90;;;;;;5096212;28;20505;-75
2021/11/14 08:49:27;;;;;;;6.70;4.22;;;8.80;99.90;;;;;;5108363;28;20089;-75
2021/11/14 08:51:53;;;;;;;5.38;3.20;;;8.80;99.90;;;;;;5084798;28;20028;-75
2021/11/14 08:54:19;;;;;;;5.30;3.03;;;8.80;99.90;;;;;;5087927;28;20021;-75
2021/11/14 08:56:45;;;;;;;4.50;2.63;;;8.70;99.90;;;;;;5086495;28;20032;-75
2021/11/14 08:59:12;;;;;;;4.68;3.05;;;8.80;99.90;;;;;;5088989;28;20466;-75
2021/11/14 09:01:39;;;;;;;4.38;2.38;;;8.90;99.90;;;;;;5103386;28;20055;-75
2021/11/14 09:04:07;;;;;;;5.20;2.90;;;8.90;99.90;;;;;;5090051;28;20028;-75
2021/11/14 09:06:34;;;;;;;4.85;3.15;;;9.00;99.90;;;;;;5095579;28;20035;-75
2021/11/14 09:09:00;;;;;;;5.70;2.78;;;9.10;99.90;;;;;;5075950;28;20579;-75
2021/11/14 09:11:26;;;;;;;6.43;3.20;;;9.10;99.90;;;;;;5079293;28;20032;-75
2021/11/14 09:13:52;;;;;;;5.55;3.35;;;9.10;99.90;;;;;;5067520;28;20025;-76
2021/11/14 09:16:18;;;;;;;5.93;3.28;;;9.10;99.90;;;;;;5080271;28;20093;-75
2021/11/14 09:18:45;;;;;;;6.13;3.90;;;9.00;99.90;;;;;;5087042;28;20048;-75
2021/11/14 09:21:11;;;;;;;6.95;3.60;;;9.10;99.90;;;;;;5085756;28;20588;-75
2021/11/14 09:23:37;;;;;;;5.18;3.22;;;9.00;99.90;;;;;;5086784;28;20100;-75
2021/11/14 09:26:03;;;;;;;4.57;2.72;;;9.00;99.90;;;;;;5086875;28;20040;-75
2021/11/14 09:28:29;;;;;;;4.65;2.88;;;9.00;99.90;;;;;;5081276;28;20064;-75
2021/11/14 09:30:55;;;;;;;6.60;3.30;;;9.00;99.90;;;;;;5093556;28;20588;-75
2021/11/14 09:33:26;;;;;;;6.15;4.05;;;9.10;99.90;;;;;;5065014;28;20039;-75
2021/11/14 09:35:52;;;;;;;4.70;2.65;;;9.20;99.90;;;;;;5064408;28;20021;-75
2021/11/14 09:38:18;;;;;;;5.65;3.15;;;9.30;99.90;;;;;;5062503;28;20035;-75
2021/11/14 09:40:44;;;;;;;18.88;14.63;;;9.40;99.90;;;;;;5062274;28;20024;-75
2021/11/14 09:43:12;;;;;;;27.15;21.95;;;9.50;99.90;;;;;;5079393;28;20044;-75
2021/11/14 09:45:38;;;;;;;28.35;21.40;;;9.60;99.90;;;;;;5097182;28;20023;-75
2021/11/14 09:48:06;;;;;;;25.83;20.52;;;9.70;99.90;;;;;;5106799;28;20028;-75
2021/11/14 09:50:32;;;;;;;9.73;6.75;;;9.70;99.90;;;;;;5101020;28;20051;-75
2021/11/14 09:52:58;;;;;;;6.07;3.70;;;9.70;99.90;;;;;;5074533;28;20703;-75
2021/11/14 09:55:30;;;;;;;4.53;2.10;;;9.50;99.90;;;;;;5080458;28;20031;-76
2021/11/14 09:57:56;;;;;;;4.70;2.50;;;9.50;99.90;;;;;;5092181;28;20055;-75
2021/11/14 10:00:26;;;;;;;5.30;2.60;;;9.60;99.90;;;;;;5106298;28;20047;-75
2021/11/14 10:02:52;;;;;;;4.40;2.65;;;9.70;99.90;;;;;;5099252;28;20035;-76
2021/11/14 10:05:18;;;;;;;4.80;2.80;;;9.70;99.90;;;;;;5099667;28;20367;-76
2021/11/14 10:08:05;;;;;;;3.78;2.38;;;9.60;99.90;;;;;;5094803;28;20037;-75
2021/11/14 10:10:36;;;;;;;3.92;2.03;;;9.60;99.90;;;;;;5066322;28;20031;-75
2021/11/14 10:13:20;;;;;;;3.65;1.60;;;9.50;99.90;;;;;;5075645;28;20040;-75
2021/11/14 10:15:51;;;;;;;3.20;1.23;;;9.60;99.90;;;;;;5105182;28;20020;-75
2021/11/14 10:18:21;;;;;;;2.95;1.42;;;9.60;99.90;;;;;;5105103;28;20055;-75
2021/11/14 10:20:50;;;;;;;2.55;1.00;;;9.60;99.90;;;;;;5085056;28;20075;-75
2021/11/14 10:23:18;;;;;;;2.55;1.25;;;9.60;99.90;;;;;;5088811;28;20652;-75
2021/11/14 10:25:45;;;;;;;4.25;1.60;;;9.60;99.90;;;;;;5097467;28;20115;-75
2021/11/14 10:28:12;;;;;;;3.63;2.00;;;9.60;99.90;;;;;;5086153;28;20158;-75
2021/11/14 10:30:41;;;;;;;3.22;1.48;;;9.60;99.90;;;;;;5086229;28;20085;-75
2021/11/14 10:33:11;;;;;;;2.92;1.65;;;9.50;99.90;;;;;;5086193;28;20031;-75
2021/11/14 10:35:40;;;;;;;2.15;1.10;;;9.50;99.90;;;;;;5106590;28;20031;-75
2021/11/14 10:38:10;;;;;;;2.90;1.52;;;9.50;99.90;;;;;;5106429;28;20031;-75
2021/11/14 10:40:46;;;;;;;1.20;0.75;;;9.50;99.90;;;;;;5101590;28;20051;-77
2021/11/14 10:43:11;;;;;;;3.35;1.10;;;9.50;99.90;;;;;;5066441;28;20461;-76
2021/11/14 10:45:40;;;;;;;2.00;0.80;;;9.60;99.90;;;;;;5088428;28;20038;-76
2021/11/14 10:48:13;;;;;;;2.35;1.02;;;9.60;99.90;;;;;;5089529;28;20036;-77
2021/11/14 10:50:41;;;;;;;2.80;1.35;;;9.60;99.90;;;;;;5088399;28;20474;-77
2021/11/14 10:53:11;;;;;;;2.53;1.02;;;9.60;99.90;;;;;;5093446;28;20099;-77
2021/11/14 10:55:40;;;;;;;3.97;1.20;;;9.60;99.90;;;;;;5094235;28;20016;-77
2021/11/14 10:58:07;;;;;;;2.70;1.33;;;9.60;99.90;;;;;;5089530;28;20026;-76
2021/11/14 11:00:33;;;;;;;4.32;1.83;;;9.60;99.90;;;;;;5089385;28;20486;-77
2021/11/14 11:03:02;;;;;;;5.13;2.30;;;9.60;99.90;;;;;;5089507;28;20020;-77
2021/11/14 11:05:30;;;;;;;3.88;2.17;;;9.60;99.90;;;;;;5099123;28;20056;-77
2021/11/14 11:08:19;;;;;;;4.63;2.67;;;9.50;99.90;;;;;;5109595;28;20027;-76
2021/11/14 11:10:50;;;;;;;3.53;1.98;;;9.60;99.90;;;;;;5107572;28;20487;-76
2021/11/14 11:13:36;;;;;;;4.38;2.00;;;9.70;99.90;;;;;;5109329;28;20055;-76
2021/11/14 11:16:05;;;;;;;3.17;1.75;;;9.60;99.90;;;;;;5107379;28;20503;-76
2021/11/14 11:18:31;;;;;;;13.63;2.92;;;9.60;99.90;;;;;;5109746;28;20031;-76
2021/11/14 11:20:58;;;;;;;4.40;2.05;;;9.50;99.90;;;;;;5104104;28;20024;-76
2021/11/14 11:23:25;;;;;;;3.83;1.77;;;9.50;99.90;;;;;;5087629;28;20466;-76
2021/11/14 11:26:04;;;;;;;3.35;1.60;;;9.50;99.90;;;;;;5103122;28;20030;-76
2021/11/14 11:28:55;;;;;;;2.20;1.00;;;9.50;99.90;;;;;;5109356;28;20095;-76
2021/11/14 11:31:24;;;;;;;3.90;1.45;;;9.50;99.90;;;;;;5105327;28;20039;-77
2021/11/14 11:33:55;;;;;;;3.08;1.30;;;9.50;99.90;;;;;;5106373;28;20036;-76
2021/11/14 11:36:22;;;;;;;2.75;1.42;;;9.50;99.90;;;;;;5104406;28;20059;-76
2021/11/14 11:38:48;;;;;;;2.22;1.00;;;9.50;99.90;;;;;;5109051;28;20111;-77
2021/11/14 11:41:15;;;;;;;2.30;1.23;;;9.50;99.90;;;;;;5091414;28;20024;-77
2021/11/14 11:43:41;;;;;;;4.57;1.33;;;9.50;99.90;;;;;;5107943;27;20032;-76
2021/11/14 11:46:08;;;;;;;3.05;1.48;;;9.60;99.90;;;;;;5106991;28;20038;-76
2021/11/14 11:48:59;;;;;;;3.00;1.48;;;9.60;99.90;;;;;;5103310;28;20103;-77
2021/11/14 11:51:31;;;;;;;2.33;1.10;;;9.60;99.90;;;;;;5079385;28;20063;-76
2021/11/14 11:54:02;;;;;;;2.58;1.10;;;9.60;99.90;;;;;;5107251;27;20035;-77
2021/11/14 11:56:38;;;;;;;2.90;1.13;;;9.70;99.90;;;;;;5102861;28;20031;-76
2021/11/14 11:59:41;;;;;;;6.07;1.75;;;9.70;99.90;;;;;;5088420;28;20047;-77
2021/11/14 12:02:21;;;;;;;3.47;1.55;;;9.90;99.90;;;;;;5002622;28;20068;-77
2021/11/14 12:04:50;;;;;;;3.25;1.65;;;10.00;99.90;;;;;;5098811;27;20067;-76
2021/11/14 12:07:25;;;;;;;2.35;1.10;;;9.90;99.90;;;;;;5087417;28;20027;-78
2021/11/14 12:09:52;;;;;;;1.95;0.90;;;9.90;99.90;;;;;;5087633;28;20428;-78
2021/11/14 12:12:32;;;;;;;3.00;1.00;;;9.80;99.90;;;;;;5104528;28;20440;-77
2021/11/14 12:15:16;;;;;;;5.10;1.40;;;9.80;99.90;;;;;;5088077;28;20020;-77
2021/11/14 12:17:57;;;;;;;5.30;1.65;;;9.70;99.90;;;;;;5097849;28;20114;-78
2021/11/14 12:20:34;;;;;;;2.30;1.10;;;9.70;99.90;;;;;;5084196;28;20043;-77
2021/11/14 12:23:04;;;;;;;15.00;1.67;;;9.70;99.90;;;;;;5087258;28;20533;-78
2021/11/14 12:25:38;;;;;;;2.70;1.00;;;9.70;99.90;;;;;;5105086;28;20027;-79
2021/11/14 12:28:15;;;;;;;6.97;4.90;;;9.80;99.90;;;;;;5098369;28;20036;-78
2021/11/14 12:31:03;;;;;;;10.82;7.55;;;9.90;99.90;;;;;;5084848;28;20486;-77
2021/11/14 12:33:32;;;;;;;7.78;4.88;;;9.90;99.90;;;;;;5097882;28;20051;-77
2021/11/14 12:36:03;;;;;;;9.38;4.30;;;10.00;99.90;;;;;;5087725;28;20375;-78
2021/11/14 12:38:32;;;;;;;13.43;5.05;;;9.90;99.90;;;;;;5101801;28;20087;-77
2021/11/14 12:41:05;;;;;;;6.82;3.70;;;9.90;99.90;;;;;;5105617;28;20077;-78
2021/11/14 12:43:34;;;;;;;4.82;3.22;;;9.90;99.90;;;;;;5089551;28;20383;-76
2021/11/14 12:46:11;;;;;;;54.83;27.55;;;9.80;99.90;;;;;;5084879;28;20028;-77
2021/11/14 12:48:43;;;;;;;16.77;9.20;;;9.80;99.90;;;;;;5088832;28;20533;-78
2021/11/14 12:51:24;;;;;;;12.50;7.90;;;9.70;99.90;;;;;;5098780;28;20138;-78
2021/11/14 12:53:53;;;;;;;10.68;7.38;;;9.70;99.90;;;;;;5083637;28;20081;-76
2021/11/14 12:56:35;;;;;;;10.25;6.97;;;9.70;99.90;;;;;;5092875;28;20027;-77
2021/11/14 12:59:15;;;;;;;7.85;5.18;;;9.70;99.90;;;;;;5104302;28;20040;-77